sensor_id;sensor_type;location;lat;lon;timestamp;pressure;altitude;pressure_sealevel;temperature;humidity
42519;BME280;28147;47.520;18.920;2023-04-24T00:01:23;97710.47;;;18.91;36.59
42519;BME280;28147;47.520;18.920;2023-04-24T00:03:48;97709.81;;;18.58;36.44
42519;BME280;28147;47.520;18.920;2023-04-24T00:06:14;97710.16;;;18.92;37.16
42519;BME280;28147;47.520;18.920;2023-04-24T00:08:42;97708.41;;;18.74;39.19
42519;BME280;28147;47.520;18.920;2023-04-24T00:11:08;97703.91;;;18.69;38.74
42519;BME280;28147;47.520;18.920;2023-04-24T00:13:34;97702.53;;;18.58;37.66
42519;BME280;28147;47.520;18.920;2023-04-24T00:16:00;97703.19;;;18.78;36.95
42519;BME280;28147;47.520;18.920;2023-04-24T00:18:26;97698.63;;;18.64;36.50
42519;BME280;28147;47.520;18.920;2023-04-24T00:20:51;97697.19;;;18.67;37.11
42519;BME280;28147;47.520;18.920;2023-04-24T00:23:17;97696.28;;;18.85;36.64
42519;BME280;28147;47.520;18.920;2023-04-24T00:25:42;97683.91;;;18.84;36.79
42519;BME280;28147;47.520;18.920;2023-04-24T00:28:08;97683.34;;;18.74;37.72
42519;BME280;28147;47.520;18.920;2023-04-24T00:30:33;97693.81;;;18.75;37.38
42519;BME280;28147;47.520;18.920;2023-04-24T00:32:58;97694.75;;;18.57;39.25
42519;BME280;28147;47.520;18.920;2023-04-24T00:35:24;97692.94;;;18.52;38.59
42519;BME280;28147;47.520;18.920;2023-04-24T00:37:49;97686.94;;;18.69;38.75
42519;BME280;28147;47.520;18.920;2023-04-24T00:40:15;97691.34;;;18.51;38.65
42519;BME280;28147;47.520;18.920;2023-04-24T00:42:40;97672.97;;;17.43;38.76
42519;BME280;28147;47.520;18.920;2023-04-24T00:45:06;97682.63;;;18.04;38.61
42519;BME280;28147;47.520;18.920;2023-04-24T00:47:35;97676.63;;;17.80;39.49
42519;BME280;28147;47.520;18.920;2023-04-24T00:50:02;97673.03;;;18.12;38.08
42519;BME280;28147;47.520;18.920;2023-04-24T00:52:28;97671.69;;;17.68;38.65
42519;BME280;28147;47.520;18.920;2023-04-24T00:54:56;97671.06;;;17.57;38.83
42519;BME280;28147;47.520;18.920;2023-04-24T00:57:21;97666.75;;;17.42;38.82
42519;BME280;28147;47.520;18.920;2023-04-24T00:59:48;97665.69;;;17.11;39.31
42519;BME280;28147;47.520;18.920;2023-04-24T01:02:15;97666.69;;;17.15;39.02
42519;BME280;28147;47.520;18.920;2023-04-24T01:04:40;97661.47;;;17.05;39.60
42519;BME280;28147;47.520;18.920;2023-04-24T01:07:06;97668.16;;;17.54;39.04
42519;BME280;28147;47.520;18.920;2023-04-24T01:09:36;97671.69;;;17.68;38.97
42519;BME280;28147;47.520;18.920;2023-04-24T01:12:02;97665.88;;;17.93;39.39
42519;BME280;28147;47.520;18.920;2023-04-24T01:14:28;97662.28;;;18.12;39.29
42519;BME280;28147;47.520;18.920;2023-04-24T01:16:53;97663.88;;;17.85;38.70
42519;BME280;28147;47.520;18.920;2023-04-24T01:19:19;97659.28;;;17.86;39.36
42519;BME280;28147;47.520;18.920;2023-04-24T01:21:47;97661.97;;;17.99;38.70
42519;BME280;28147;47.520;18.920;2023-04-24T01:24:12;97656.69;;;17.94;38.92
42519;BME280;28147;47.520;18.920;2023-04-24T01:26:38;97650.84;;;17.60;39.75
42519;BME280;28147;47.520;18.920;2023-04-24T01:29:03;97653.13;;;17.39;41.05
42519;BME280;28147;47.520;18.920;2023-04-24T01:31:29;97653.75;;;17.63;42.48
42519;BME280;28147;47.520;18.920;2023-04-24T01:33:56;97650.34;;;17.58;44.07
42519;BME280;28147;47.520;18.920;2023-04-24T01:36:22;97632.94;;;17.83;45.71
42519;BME280;28147;47.520;18.920;2023-04-24T01:38:49;97634.72;;;17.87;47.20
42519;BME280;28147;47.520;18.920;2023-04-24T01:41:14;97632.03;;;17.87;43.09
42519;BME280;28147;47.520;18.920;2023-04-24T01:43:40;97631.16;;;17.92;43.72
42519;BME280;28147;47.520;18.920;2023-04-24T01:46:06;97623.44;;;17.99;43.58
42519;BME280;28147;47.520;18.920;2023-04-24T01:48:31;97626.97;;;17.86;47.14
42519;BME280;28147;47.520;18.920;2023-04-24T01:50:57;97623.94;;;17.73;49.91
42519;BME280;28147;47.520;18.920;2023-04-24T01:53:22;97614.00;;;17.88;46.86
42519;BME280;28147;47.520;18.920;2023-04-24T01:55:48;97608.03;;;17.77;49.05
42519;BME280;28147;47.520;18.920;2023-04-24T01:58:13;97604.78;;;17.61;48.02
42519;BME280;28147;47.520;18.920;2023-04-24T02:00:39;97599.91;;;17.63;47.94
42519;BME280;28147;47.520;18.920;2023-04-24T02:03:04;97597.72;;;17.65;48.46
42519;BME280;28147;47.520;18.920;2023-04-24T02:05:30;97595.66;;;17.76;46.94
42519;BME280;28147;47.520;18.920;2023-04-24T02:07:55;97580.56;;;18.03;43.94
42519;BME280;28147;47.520;18.920;2023-04-24T02:10:21;97580.41;;;17.85;43.87
42519;BME280;28147;47.520;18.920;2023-04-24T02:12:46;97591.25;;;18.08;44.85
42519;BME280;28147;47.520;18.920;2023-04-24T02:15:12;97578.69;;;17.75;46.99
42519;BME280;28147;47.520;18.920;2023-04-24T02:17:38;97571.69;;;17.74;48.14
42519;BME280;28147;47.520;18.920;2023-04-24T02:20:05;97573.41;;;17.70;48.94
42519;BME280;28147;47.520;18.920;2023-04-24T02:22:30;97569.50;;;17.49;48.49
42519;BME280;28147;47.520;18.920;2023-04-24T02:24:56;97560.53;;;17.67;47.75
42519;BME280;28147;47.520;18.920;2023-04-24T02:27:21;97562.03;;;17.87;49.23
42519;BME280;28147;47.520;18.920;2023-04-24T02:29:46;97556.56;;;17.51;47.86
42519;BME280;28147;47.520;18.920;2023-04-24T02:32:12;97561.63;;;17.52;48.40
42519;BME280;28147;47.520;18.920;2023-04-24T02:34:38;97568.09;;;17.38;49.19
42519;BME280;28147;47.520;18.920;2023-04-24T02:37:03;97552.97;;;17.28;49.35
42519;BME280;28147;47.520;18.920;2023-04-24T02:39:29;97565.09;;;17.25;49.39
42519;BME280;28147;47.520;18.920;2023-04-24T02:41:54;97570.09;;;17.32;49.69
42519;BME280;28147;47.520;18.920;2023-04-24T02:44:19;97565.00;;;17.31;48.17
42519;BME280;28147;47.520;18.920;2023-04-24T02:46:46;97557.28;;;16.96;48.14
42519;BME280;28147;47.520;18.920;2023-04-24T02:49:12;97553.63;;;16.73;49.39
42519;BME280;28147;47.520;18.920;2023-04-24T02:51:37;97558.56;;;15.91;51.30
42519;BME280;28147;47.520;18.920;2023-04-24T02:54:06;97570.69;;;15.88;52.09
42519;BME280;28147;47.520;18.920;2023-04-24T02:56:31;97561.88;;;16.44;50.59
42519;BME280;28147;47.520;18.920;2023-04-24T02:58:57;97560.84;;;16.92;50.15
42519;BME280;28147;47.520;18.920;2023-04-24T03:01:22;97557.00;;;17.12;50.35
42519;BME280;28147;47.520;18.920;2023-04-24T03:03:47;97549.38;;;17.33;49.55
42519;BME280;28147;47.520;18.920;2023-04-24T03:06:13;97555.16;;;17.40;50.02
42519;BME280;28147;47.520;18.920;2023-04-24T03:08:38;97547.38;;;17.24;51.24
42519;BME280;28147;47.520;18.920;2023-04-24T03:11:04;97553.75;;;17.29;50.97
42519;BME280;28147;47.520;18.920;2023-04-24T03:13:29;97541.31;;;17.46;50.12
42519;BME280;28147;47.520;18.920;2023-04-24T03:15:55;97543.69;;;17.48;50.97
42519;BME280;28147;47.520;18.920;2023-04-24T03:18:20;97544.28;;;17.59;50.32
42519;BME280;28147;47.520;18.920;2023-04-24T03:20:46;97551.06;;;17.56;50.60
42519;BME280;28147;47.520;18.920;2023-04-24T03:23:12;97544.19;;;17.50;51.62
42519;BME280;28147;47.520;18.920;2023-04-24T03:25:38;97542.19;;;17.56;51.94
42519;BME280;28147;47.520;18.920;2023-04-24T03:28:04;97543.97;;;17.60;51.62
42519;BME280;28147;47.520;18.920;2023-04-24T03:30:29;97541.22;;;17.65;50.34
42519;BME280;28147;47.520;18.920;2023-04-24T03:32:55;97536.22;;;17.59;51.31
42519;BME280;28147;47.520;18.920;2023-04-24T03:35:20;97535.50;;;17.53;51.66
42519;BME280;28147;47.520;18.920;2023-04-24T03:37:47;97536.81;;;17.42;51.87
42519;BME280;28147;47.520;18.920;2023-04-24T03:40:12;97538.69;;;17.41;52.07
42519;BME280;28147;47.520;18.920;2023-04-24T03:42:38;97548.56;;;17.60;50.95
42519;BME280;28147;47.520;18.920;2023-04-24T03:45:04;97541.59;;;17.59;51.26
42519;BME280;28147;47.520;18.920;2023-04-24T03:47:30;97537.91;;;17.55;51.37
42519;BME280;28147;47.520;18.920;2023-04-24T03:49:56;97541.13;;;17.43;52.59
42519;BME280;28147;47.520;18.920;2023-04-24T03:52:21;97535.81;;;17.24;52.81
42519;BME280;28147;47.520;18.920;2023-04-24T03:54:46;97529.94;;;17.49;50.98
42519;BME280;28147;47.520;18.920;2023-04-24T03:57:12;97520.28;;;17.62;50.63
42519;BME280;28147;47.520;18.920;2023-04-24T03:59:37;97522.66;;;17.50;50.27
42519;BME280;28147;47.520;18.920;2023-04-24T04:02:03;97513.59;;;17.46;49.57
42519;BME280;28147;47.520;18.920;2023-04-24T04:04:28;97523.06;;;17.57;48.64
42519;BME280;28147;47.520;18.920;2023-04-24T04:06:53;97518.19;;;17.59;50.62
42519;BME280;28147;47.520;18.920;2023-04-24T04:09:19;97518.88;;;17.79;50.18
42519;BME280;28147;47.520;18.920;2023-04-24T04:11:44;97516.56;;;17.72;48.98
42519;BME280;28147;47.520;18.920;2023-04-24T04:14:10;97517.34;;;17.72;48.71
42519;BME280;28147;47.520;18.920;2023-04-24T04:16:35;97511.69;;;17.74;48.53
42519;BME280;28147;47.520;18.920;2023-04-24T04:19:04;97526.34;;;17.82;48.57
42519;BME280;28147;47.520;18.920;2023-04-24T04:21:29;97526.84;;;17.84;50.06
42519;BME280;28147;47.520;18.920;2023-04-24T04:23:56;97523.84;;;17.30;47.11
42519;BME280;28147;47.520;18.920;2023-04-24T04:26:22;97519.75;;;16.72;46.56
42519;BME280;28147;47.520;18.920;2023-04-24T04:28:51;97518.75;;;16.68;47.53
42519;BME280;28147;47.520;18.920;2023-04-24T04:31:16;97538.09;;;17.31;46.91
42519;BME280;28147;47.520;18.920;2023-04-24T04:33:42;97538.50;;;17.51;47.94
42519;BME280;28147;47.520;18.920;2023-04-24T04:36:07;97536.63;;;17.52;47.97
42519;BME280;28147;47.520;18.920;2023-04-24T04:38:33;97538.41;;;17.57;46.51
42519;BME280;28147;47.520;18.920;2023-04-24T04:41:00;97534.75;;;16.78;47.12
42519;BME280;28147;47.520;18.920;2023-04-24T04:43:25;97529.00;;;16.66;47.01
42519;BME280;28147;47.520;18.920;2023-04-24T04:45:52;97522.53;;;16.86;47.01
42519;BME280;28147;47.520;18.920;2023-04-24T04:48:17;97524.16;;;17.29;46.51
42519;BME280;28147;47.520;18.920;2023-04-24T04:50:44;97524.63;;;17.03;46.39
42519;BME280;28147;47.520;18.920;2023-04-24T04:53:09;97524.44;;;17.27;49.54
42519;BME280;28147;47.520;18.920;2023-04-24T04:55:34;97520.88;;;17.59;45.90
42519;BME280;28147;47.520;18.920;2023-04-24T04:58:00;97521.19;;;17.44;46.01
42519;BME280;28147;47.520;18.920;2023-04-24T05:00:26;97517.75;;;16.97;46.69
42519;BME280;28147;47.520;18.920;2023-04-24T05:02:52;97518.06;;;17.09;47.14
42519;BME280;28147;47.520;18.920;2023-04-24T05:05:17;97517.56;;;17.35;47.00
42519;BME280;28147;47.520;18.920;2023-04-24T05:07:43;97514.59;;;17.22;47.11
42519;BME280;28147;47.520;18.920;2023-04-24T05:10:09;97513.69;;;17.41;46.73
42519;BME280;28147;47.520;18.920;2023-04-24T05:12:35;97523.06;;;17.43;47.46
42519;BME280;28147;47.520;18.920;2023-04-24T05:15:01;97523.44;;;17.64;46.56
42519;BME280;28147;47.520;18.920;2023-04-24T05:17:26;97520.88;;;17.32;47.13
42519;BME280;28147;47.520;18.920;2023-04-24T05:19:52;97517.78;;;17.80;46.70
42519;BME280;28147;47.520;18.920;2023-04-24T05:22:17;97517.06;;;17.88;46.57
42519;BME280;28147;47.520;18.920;2023-04-24T05:24:45;97524.84;;;17.89;47.59
42519;BME280;28147;47.520;18.920;2023-04-24T05:27:10;97538.72;;;17.83;47.96
42519;BME280;28147;47.520;18.920;2023-04-24T05:29:35;97528.69;;;17.00;49.48
42519;BME280;28147;47.520;18.920;2023-04-24T05:32:01;97524.06;;;17.34;48.81
42519;BME280;28147;47.520;18.920;2023-04-24T05:34:26;97528.19;;;16.85;50.23
42519;BME280;28147;47.520;18.920;2023-04-24T05:36:52;97527.72;;;17.10;50.13
42519;BME280;28147;47.520;18.920;2023-04-24T05:39:18;97525.53;;;17.67;49.91
42519;BME280;28147;47.520;18.920;2023-04-24T05:41:44;97534.03;;;17.88;49.50
42519;BME280;28147;47.520;18.920;2023-04-24T05:44:10;97535.41;;;17.99;49.19
42519;BME280;28147;47.520;18.920;2023-04-24T05:46:35;97532.59;;;18.05;49.08
42519;BME280;28147;47.520;18.920;2023-04-24T05:49:01;97530.34;;;18.20;49.64
42519;BME280;28147;47.520;18.920;2023-04-24T05:51:27;97523.06;;;18.21;48.44
42519;BME280;28147;47.520;18.920;2023-04-24T05:53:53;97522.78;;;18.45;48.29
42519;BME280;28147;47.520;18.920;2023-04-24T05:56:18;97520.19;;;18.17;47.13
42519;BME280;28147;47.520;18.920;2023-04-24T05:58:45;97514.63;;;18.36;47.64
42519;BME280;28147;47.520;18.920;2023-04-24T06:01:12;97525.34;;;18.28;47.48
42519;BME280;28147;47.520;18.920;2023-04-24T06:03:40;97523.03;;;18.35;48.25
42519;BME280;28147;47.520;18.920;2023-04-24T06:06:06;97533.94;;;18.30;49.13
42519;BME280;28147;47.520;18.920;2023-04-24T06:08:32;97528.19;;;18.45;49.34
42519;BME280;28147;47.520;18.920;2023-04-24T06:10:58;97540.66;;;18.41;48.06
42519;BME280;28147;47.520;18.920;2023-04-24T06:13:23;97536.19;;;18.00;48.78
42519;BME280;28147;47.520;18.920;2023-04-24T06:15:49;97539.03;;;18.17;48.63
42519;BME280;28147;47.520;18.920;2023-04-24T06:18:15;97538.59;;;17.74;49.49
42519;BME280;28147;47.520;18.920;2023-04-24T06:20:40;97538.38;;;17.15;50.53
42519;BME280;28147;47.520;18.920;2023-04-24T06:23:06;97544.03;;;17.00;52.02
42519;BME280;28147;47.520;18.920;2023-04-24T06:25:31;97540.31;;;16.30;52.38
42519;BME280;28147;47.520;18.920;2023-04-24T06:27:57;97550.91;;;15.84;54.36
42519;BME280;28147;47.520;18.920;2023-04-24T06:30:22;97543.50;;;15.95;53.75
42519;BME280;28147;47.520;18.920;2023-04-24T06:32:48;97539.28;;;15.89;54.01
42519;BME280;28147;47.520;18.920;2023-04-24T06:35:13;97531.97;;;16.13;53.76
42519;BME280;28147;47.520;18.920;2023-04-24T06:37:40;97520.84;;;16.39;53.23
42519;BME280;28147;47.520;18.920;2023-04-24T06:40:06;97520.06;;;17.17;51.21
42519;BME280;28147;47.520;18.920;2023-04-24T06:42:32;97523.66;;;17.40;50.63
42519;BME280;28147;47.520;18.920;2023-04-24T06:44:57;97530.72;;;17.22;51.34
42519;BME280;28147;47.520;18.920;2023-04-24T06:47:23;97529.59;;;16.96;51.69
42519;BME280;28147;47.520;18.920;2023-04-24T06:49:48;97528.09;;;16.90;51.61
42519;BME280;28147;47.520;18.920;2023-04-24T06:52:16;97526.41;;;16.61;52.79
42519;BME280;28147;47.520;18.920;2023-04-24T06:54:41;97525.72;;;16.69;52.28
42519;BME280;28147;47.520;18.920;2023-04-24T06:57:08;97526.84;;;17.29;50.74
42519;BME280;28147;47.520;18.920;2023-04-24T06:59:33;97528.53;;;18.30;49.78
42519;BME280;28147;47.520;18.920;2023-04-24T07:01:58;97533.25;;;18.10;48.81
42519;BME280;28147;47.520;18.920;2023-04-24T07:04:24;97518.38;;;18.27;48.07
42519;BME280;28147;47.520;18.920;2023-04-24T07:06:50;97518.19;;;17.32;50.18
42519;BME280;28147;47.520;18.920;2023-04-24T07:09:16;97521.06;;;17.77;50.05
42519;BME280;28147;47.520;18.920;2023-04-24T07:11:44;97513.66;;;17.68;50.57
42519;BME280;28147;47.520;18.920;2023-04-24T07:14:09;97513.31;;;17.47;48.80
42519;BME280;28147;47.520;18.920;2023-04-24T07:16:35;97507.81;;;16.97;51.21
42519;BME280;28147;47.520;18.920;2023-04-24T07:19:00;97507.31;;;17.09;51.45
42519;BME280;28147;47.520;18.920;2023-04-24T07:21:26;97522.56;;;17.27;51.63
42519;BME280;28147;47.520;18.920;2023-04-24T07:23:52;97519.63;;;16.83;52.68
42519;BME280;28147;47.520;18.920;2023-04-24T07:26:17;97530.75;;;16.57;53.81
42519;BME280;28147;47.520;18.920;2023-04-24T07:28:43;97531.84;;;17.21;53.47
42519;BME280;28147;47.520;18.920;2023-04-24T07:31:10;97522.53;;;16.67;54.42
42519;BME280;28147;47.520;18.920;2023-04-24T07:33:36;97527.44;;;17.25;53.18
42519;BME280;28147;47.520;18.920;2023-04-24T07:36:01;97528.41;;;17.16;53.41
42519;BME280;28147;47.520;18.920;2023-04-24T07:38:29;97520.34;;;17.57;52.75
42519;BME280;28147;47.520;18.920;2023-04-24T07:40:55;97528.97;;;18.09;51.97
42519;BME280;28147;47.520;18.920;2023-04-24T07:43:20;97507.53;;;17.54;53.04
42519;BME280;28147;47.520;18.920;2023-04-24T07:45:46;97525.47;;;18.22;51.33
42519;BME280;28147;47.520;18.920;2023-04-24T07:48:12;97518.78;;;18.65;51.12
42519;BME280;28147;47.520;18.920;2023-04-24T07:50:40;97513.88;;;18.67;50.41
42519;BME280;28147;47.520;18.920;2023-04-24T07:53:05;97517.97;;;18.19;51.24
42519;BME280;28147;47.520;18.920;2023-04-24T07:55:30;97511.69;;;18.46;51.12
42519;BME280;28147;47.520;18.920;2023-04-24T07:57:56;97521.00;;;19.16;49.95
42519;BME280;28147;47.520;18.920;2023-04-24T08:00:21;97516.03;;;19.50;48.80
42519;BME280;28147;47.520;18.920;2023-04-24T08:02:47;97521.09;;;19.03;49.39
42519;BME280;28147;47.520;18.920;2023-04-24T08:05:12;97521.94;;;19.52;49.23
42519;BME280;28147;47.520;18.920;2023-04-24T08:07:38;97521.31;;;18.84;50.17
42519;BME280;28147;47.520;18.920;2023-04-24T08:10:04;97505.66;;;19.26;49.76
42519;BME280;28147;47.520;18.920;2023-04-24T08:12:30;97506.97;;;19.37;49.26
42519;BME280;28147;47.520;18.920;2023-04-24T08:14:55;97516.50;;;20.00;49.32
42519;BME280;28147;47.520;18.920;2023-04-24T08:17:21;97510.28;;;19.42;49.89
42519;BME280;28147;47.520;18.920;2023-04-24T08:19:46;97518.91;;;18.82;51.93
42519;BME280;28147;47.520;18.920;2023-04-24T08:22:16;97503.94;;;19.38;49.84
42519;BME280;28147;47.520;18.920;2023-04-24T08:24:42;97509.34;;;19.38;50.07
42519;BME280;28147;47.520;18.920;2023-04-24T08:27:09;97515.72;;;18.58;51.42
42519;BME280;28147;47.520;18.920;2023-04-24T08:29:34;97513.72;;;19.17;51.04
42519;BME280;28147;47.520;18.920;2023-04-24T08:31:59;97520.72;;;19.27;50.44
42519;BME280;28147;47.520;18.920;2023-04-24T08:34:25;97526.75;;;19.24;50.58
42519;BME280;28147;47.520;18.920;2023-04-24T08:36:50;97524.94;;;19.10;50.32
42519;BME280;28147;47.520;18.920;2023-04-24T08:39:17;97513.28;;;19.72;48.58
42519;BME280;28147;47.520;18.920;2023-04-24T08:41:43;97517.63;;;19.51;49.17
42519;BME280;28147;47.520;18.920;2023-04-24T08:44:09;97522.22;;;19.50;49.68
42519;BME280;28147;47.520;18.920;2023-04-24T08:46:35;97520.16;;;19.47;50.25
42519;BME280;28147;47.520;18.920;2023-04-24T08:49:02;97517.97;;;19.58;49.11
42519;BME280;28147;47.520;18.920;2023-04-24T08:51:27;97524.66;;;18.67;51.38
42519;BME280;28147;47.520;18.920;2023-04-24T08:53:55;97517.63;;;19.02;51.09
42519;BME280;28147;47.520;18.920;2023-04-24T08:56:22;97518.66;;;19.24;50.16
42519;BME280;28147;47.520;18.920;2023-04-24T08:58:50;97519.72;;;19.14;48.79
42519;BME280;28147;47.520;18.920;2023-04-24T09:01:20;97512.44;;;18.83;49.63
42519;BME280;28147;47.520;18.920;2023-04-24T09:03:48;97505.25;;;18.79;51.04
42519;BME280;28147;47.520;18.920;2023-04-24T09:06:14;97511.22;;;19.29;48.76
42519;BME280;28147;47.520;18.920;2023-04-24T09:08:42;97491.44;;;19.51;49.30
42519;BME280;28147;47.520;18.920;2023-04-24T09:11:09;97511.78;;;18.86;49.68
42519;BME280;28147;47.520;18.920;2023-04-24T09:13:35;97512.84;;;18.54;50.99
42519;BME280;28147;47.520;18.920;2023-04-24T09:16:00;97508.94;;;18.83;49.83
42519;BME280;28147;47.520;18.920;2023-04-24T09:18:26;97505.38;;;20.10;47.32
42519;BME280;28147;47.520;18.920;2023-04-24T09:21:03;97498.69;;;19.99;47.27
42519;BME280;28147;47.520;18.920;2023-04-24T09:23:30;97504.88;;;19.74;47.24
42519;BME280;28147;47.520;18.920;2023-04-24T09:25:56;97504.97;;;19.60;48.09
42519;BME280;28147;47.520;18.920;2023-04-24T09:28:35;97498.66;;;19.73;47.35
42519;BME280;28147;47.520;18.920;2023-04-24T09:31:17;97499.47;;;19.74;48.05
42519;BME280;28147;47.520;18.920;2023-04-24T09:36:35;97497.22;;;18.65;48.84
42519;BME280;28147;47.520;18.920;2023-04-24T09:39:06;97508.31;;;18.86;48.91
42519;BME280;28147;47.520;18.920;2023-04-24T09:41:33;97504.03;;;18.85;48.77
42519;BME280;28147;47.520;18.920;2023-04-24T09:46:42;97491.22;;;18.68;49.61
42519;BME280;28147;47.520;18.920;2023-04-24T09:49:15;97492.63;;;18.20;50.36
42519;BME280;28147;47.520;18.920;2023-04-24T09:51:42;97491.28;;;18.54;51.02
42519;BME280;28147;47.520;18.920;2023-04-24T09:54:18;97495.72;;;18.73;50.13
42519;BME280;28147;47.520;18.920;2023-04-24T09:56:50;97487.09;;;18.93;51.28
42519;BME280;28147;47.520;18.920;2023-04-24T09:59:18;97494.06;;;18.94;49.98
42519;BME280;28147;47.520;18.920;2023-04-24T10:01:44;97484.38;;;19.81;48.21
42519;BME280;28147;47.520;18.920;2023-04-24T10:04:20;97481.28;;;19.48;48.36
42519;BME280;28147;47.520;18.920;2023-04-24T10:06:48;97486.06;;;19.51;49.09
42519;BME280;28147;47.520;18.920;2023-04-24T10:09:14;97496.34;;;19.40;49.37
42519;BME280;28147;47.520;18.920;2023-04-24T10:11:45;97489.16;;;18.96;51.17
42519;BME280;28147;47.520;18.920;2023-04-24T10:14:15;97477.34;;;19.14;51.29
42519;BME280;28147;47.520;18.920;2023-04-24T10:16:42;97473.09;;;19.22;51.67
42519;BME280;28147;47.520;18.920;2023-04-24T10:19:08;97476.00;;;18.94;51.00
42519;BME280;28147;47.520;18.920;2023-04-24T10:21:34;97481.59;;;18.98;50.98
42519;BME280;28147;47.520;18.920;2023-04-24T10:24:00;97474.13;;;19.61;50.35
42519;BME280;28147;47.520;18.920;2023-04-24T10:26:28;97468.06;;;19.38;49.56
42519;BME280;28147;47.520;18.920;2023-04-24T10:28:57;97473.81;;;19.54;50.50
42519;BME280;28147;47.520;18.920;2023-04-24T10:31:23;97473.75;;;20.02;48.96
42519;BME280;28147;47.520;18.920;2023-04-24T10:33:50;97474.22;;;19.30;50.91
42519;BME280;28147;47.520;18.920;2023-04-24T10:36:17;97469.47;;;18.64;52.00
42519;BME280;28147;47.520;18.920;2023-04-24T10:38:43;97469.66;;;18.90;52.15
42519;BME280;28147;47.520;18.920;2023-04-24T10:41:11;97479.72;;;18.54;51.86
42519;BME280;28147;47.520;18.920;2023-04-24T10:44:11;97474.56;;;18.66;51.35
42519;BME280;28147;47.520;18.920;2023-04-24T10:46:38;97473.56;;;18.84;51.19
42519;BME280;28147;47.520;18.920;2023-04-24T10:49:07;97476.34;;;19.02;51.05
42519;BME280;28147;47.520;18.920;2023-04-24T10:51:50;97477.69;;;19.22;51.63
42519;BME280;28147;47.520;18.920;2023-04-24T10:59:47;97472.78;;;19.24;53.82
42519;BME280;28147;47.520;18.920;2023-04-24T11:02:17;97465.97;;;19.35;53.85
42519;BME280;28147;47.520;18.920;2023-04-24T11:04:43;97464.03;;;19.66;52.98
42519;BME280;28147;47.520;18.920;2023-04-24T11:07:10;97466.25;;;20.42;51.58
42519;BME280;28147;47.520;18.920;2023-04-24T11:09:36;97464.53;;;19.86;50.75
42519;BME280;28147;47.520;18.920;2023-04-24T11:12:10;97460.22;;;20.28;49.87
42519;BME280;28147;47.520;18.920;2023-04-24T11:17:36;97453.78;;;19.37;50.10
42519;BME280;28147;47.520;18.920;2023-04-24T11:20:06;97451.00;;;19.11;50.34
42519;BME280;28147;47.520;18.920;2023-04-24T11:22:34;97452.94;;;19.85;48.94
42519;BME280;28147;47.520;18.920;2023-04-24T11:25:01;97457.19;;;20.04;49.56
42519;BME280;28147;47.520;18.920;2023-04-24T11:27:31;97451.34;;;20.02;49.40
42519;BME280;28147;47.520;18.920;2023-04-24T11:30:02;97446.84;;;20.49;47.38
42519;BME280;28147;47.520;18.920;2023-04-24T11:37:38;97450.16;;;20.72;44.71
42519;BME280;28147;47.520;18.920;2023-04-24T11:40:06;97443.44;;;21.76;43.13
42519;BME280;28147;47.520;18.920;2023-04-24T11:42:36;97441.78;;;21.62;42.36
42519;BME280;28147;47.520;18.920;2023-04-24T11:45:07;97439.84;;;20.48;43.25
42519;BME280;28147;47.520;18.920;2023-04-24T11:47:33;97430.59;;;20.67;44.05
42519;BME280;28147;47.520;18.920;2023-04-24T11:49:59;97441.03;;;21.24;42.84
42519;BME280;28147;47.520;18.920;2023-04-24T11:52:26;97430.06;;;21.20;42.77
42519;BME280;28147;47.520;18.920;2023-04-24T11:54:51;97428.91;;;20.53;43.72
42519;BME280;28147;47.520;18.920;2023-04-24T11:57:19;97427.47;;;20.94;43.98
42519;BME280;28147;47.520;18.920;2023-04-24T11:59:45;97420.81;;;20.27;44.08
42519;BME280;28147;47.520;18.920;2023-04-24T12:02:25;97422.38;;;20.54;44.36
42519;BME280;28147;47.520;18.920;2023-04-24T12:04:51;97422.38;;;20.54;44.08
42519;BME280;28147;47.520;18.920;2023-04-24T12:07:17;97415.28;;;19.89;46.81
42519;BME280;28147;47.520;18.920;2023-04-24T12:09:48;97417.75;;;20.46;46.78
42519;BME280;28147;47.520;18.920;2023-04-24T12:12:16;97423.84;;;19.74;45.98
42519;BME280;28147;47.520;18.920;2023-04-24T12:14:57;97428.47;;;19.90;47.51
42519;BME280;28147;47.520;18.920;2023-04-24T12:17:28;97409.47;;;19.30;45.84
42519;BME280;28147;47.520;18.920;2023-04-24T12:20:04;97413.03;;;20.08;46.26
42519;BME280;28147;47.520;18.920;2023-04-24T12:22:52;97407.75;;;20.29;47.75
42519;BME280;28147;47.520;18.920;2023-04-24T12:25:28;97402.63;;;20.62;48.43
42519;BME280;28147;47.520;18.920;2023-04-24T12:27:57;97403.38;;;20.72;49.81
42519;BME280;28147;47.520;18.920;2023-04-24T12:30:43;97413.22;;;20.76;52.32
42519;BME280;28147;47.520;18.920;2023-04-24T12:33:10;97402.72;;;20.75;53.99
42519;BME280;28147;47.520;18.920;2023-04-24T12:35:35;97408.66;;;20.59;54.54
42519;BME280;28147;47.520;18.920;2023-04-24T12:38:12;97404.81;;;20.60;54.68
42519;BME280;28147;47.520;18.920;2023-04-24T12:40:38;97405.78;;;20.64;53.44
42519;BME280;28147;47.520;18.920;2023-04-24T12:43:13;97406.28;;;20.49;53.47
42519;BME280;28147;47.520;18.920;2023-04-24T12:45:40;97400.88;;;20.49;54.88
42519;BME280;28147;47.520;18.920;2023-04-24T12:48:05;97394.31;;;20.68;53.81
42519;BME280;28147;47.520;18.920;2023-04-24T12:50:33;97392.09;;;20.70;53.70
42519;BME280;28147;47.520;18.920;2023-04-24T12:52:59;97387.94;;;20.72;53.48
42519;BME280;28147;47.520;18.920;2023-04-24T12:55:25;97381.22;;;20.78;53.31
42519;BME280;28147;47.520;18.920;2023-04-24T12:57:50;97380.88;;;20.88;53.45
42519;BME280;28147;47.520;18.920;2023-04-24T13:00:17;97372.34;;;21.07;52.81
42519;BME280;28147;47.520;18.920;2023-04-24T13:02:42;97380.47;;;21.07;51.80
42519;BME280;28147;47.520;18.920;2023-04-24T13:05:08;97374.06;;;21.12;50.26
42519;BME280;28147;47.520;18.920;2023-04-24T13:07:34;97374.75;;;21.00;50.00